הכול
Lilydale Airport (Lilydale, Victoria) YLIL מזג אוויר
There is no TAF data available at YLIL or any nearby airports.
There is no METAR data available at YLIL. Showing METAR data for YCEM (4 mi דר'-מז').
Recent YCEM METAR history (no data for YLIL)
| Date | Time (AEST) | Flight Rules | Wind Dir. | Speed | Type | Height AGL (ft) | Visibility | Temp (°C) | Temp (°F) | Dew Point (°C) | Dew Point (°F) | Rel. Humid. | Pressure | Density Altitude | Remarks |
|---|---|---|---|---|---|---|---|---|---|---|---|---|---|---|---|
| 08-מאי | 22:00 | n/a | 110° | 3 kt | Missing | 11° | 51° | 11° | 51° | 100% | 1025 mb | -495 ft | |||
| 08-מאי | 21:00 | n/a | Calm | Missing | 11° | 51° | 11° | 51° | 100% | 1025 mb | -495 ft | ||||
| 08-מאי | 20:00 | n/a | Calm | Missing | 12° | 53° | 10° | 50° | 88% | 1025 mb | -375 ft | ||||
| 08-מאי | 19:00 | n/a | 190° | 7 kt | Missing | 13° | 55° | 10° | 50° | 82% | 1024 mb | -226 ft | |||
| 08-מאי | 18:00 | n/a | Calm | Missing | 13° | 55° | 10° | 50° | 82% | 1024 mb | -226 ft | ||||
| 08-מאי | 17:00 | n/a | 190° | 3 kt | Missing | 13° | 55° | 10° | 50° | 82% | 1023 mb | -196 ft | |||
| 08-מאי | 16:00 | n/a | 180° | 6 kt | Missing | 14° | 57° | 11° | 51° | 82% | 1023 mb | -76 ft | |||
| 08-מאי | 15:00 | n/a | 210° | 9 kt | Missing | 13° | 55° | 11° | 51° | 88% | 1023 mb | -196 ft | |||
| 08-מאי | 14:00 | n/a | 200° | 6 kt | Missing | 14° | 57° | 11° | 51° | 82% | 1023 mb | -76 ft | |||
| 08-מאי | 13:00 | n/a | 220° | 11 kt | Missing | 14° | 57° | 12° | 53° | 88% | 1023 mb | -76 ft | Wind gusting to 21 KT | ||
| 08-מאי | 12:00 | n/a | 230° | 10 kt | Missing | 14° | 57° | 11° | 51° | 82% | 1023 mb | -76 ft | |||
| 08-מאי | 11:00 | n/a | 250° | 8 kt | Missing | 14° | 57° | 12° | 53° | 88% | 1023 mb | -76 ft | |||
| 08-מאי | 10:00 | n/a | 250° | 8 kt | Missing | 13° | 55° | 13° | 55° | 100% | 1022 mb | -167 ft | |||
| 08-מאי | 09:00 | n/a | 260° | 7 kt | Missing | 13° | 55° | 12° | 53° | 94% | 1022 mb | -167 ft | |||
| 08-מאי | 08:00 | n/a | 270° | 7 kt | Missing | 12° | 53° | 12° | 53° | 100% | 1021 mb | -257 ft | |||
| 08-מאי | 07:00 | n/a | 250° | 5 kt | Missing | 12° | 53° | 12° | 53° | 100% | 1021 mb | -257 ft | |||
| 08-מאי | 06:00 | n/a | 280° | 7 kt | Missing | 13° | 55° | 11° | 51° | 88% | 1020 mb | -108 ft | |||
| 08-מאי | 05:00 | n/a | 350° | 1 kt | Missing | 12° | 53° | 11° | 51° | 94% | 1020 mb | -228 ft | |||
| 08-מאי | 04:00 | n/a | 310° | 4 kt | Missing | 12° | 53° | 11° | 51° | 94% | 1020 mb | -228 ft | |||
| 08-מאי | 03:00 | n/a | 310° | 5 kt | Missing | 12° | 53° | 10° | 50° | 88% | 1020 mb | -228 ft | |||
| 08-מאי | 02:00 | n/a | 330° | 5 kt | Missing | 11° | 51° | 10° | 50° | 94% | 1020 mb | -348 ft | |||
| 08-מאי | 01:00 | n/a | 10° | 4 kt | Missing | 10° | 50° | 10° | 50° | 100% | 1020 mb | -468 ft | |||
| 08-מאי | 00:00 | n/a | 20° | 4 kt | Missing | 10° | 50° | 10° | 50° | 100% | 1021 mb | -497 ft | |||
| 07-מאי | 23:00 | n/a | 10° | 4 kt | Missing | 10° | 50° | 9° | 48° | 93% | 1022 mb | -527 ft |
כניסה לאתר
| אין תמיכה בדפדפן שלך. שדרג את הדפדפן שלך |
